Time;durP1;ratioP1;P1;durP2;ratioP2;P2;SDS_P1;SDS_P2;PMS_P1;PMS_P2;Temp;Humidity;BMP_temperature;BMP_pressure;BME280_temperature;BME280_humidity;BME280_pressure;Samples;Min_cycle;Max_cycle;Signal;HPM_P1;HPM_P2
2022/04/13 00:02:20;;;;;;;4.60;1.70;;;;;;;;;;5118414;28;20232;-73
2022/04/13 00:04:48;;;;;;;6.27;1.77;;;;;;;;;;5118578;28;20261;-73
2022/04/13 00:07:16;;;;;;;8.33;2.43;;;;;;;;;;5117479;28;20558;-72
2022/04/13 00:09:44;;;;;;;7.60;1.60;;;;;;;;;;5118544;28;20200;-73
2022/04/13 00:12:12;;;;;;;5.87;1.97;;;;;;;;;;5118656;28;20204;-72
2022/04/13 00:14:40;;;;;;;5.37;1.60;;;;;;;;;;5117417;28;20197;-73
2022/04/13 00:17:08;;;;;;;8.40;1.80;;;;;;;;;;5118210;28;20227;-73
2022/04/13 00:19:38;;;;;;;6.70;1.87;;;;;;;;;;5117891;28;20238;-73
2022/04/13 00:22:06;;;;;;;5.07;1.60;;;;;;;;;;5118095;28;20566;-73
2022/04/13 00:24:33;;;;;;;9.13;1.90;;;;;;;;;;5108230;28;20565;-73
2022/04/13 00:27:01;;;;;;;6.13;2.00;;;;;;;;;;5112004;28;20221;-73
2022/04/13 00:29:30;;;;;;;7.50;2.20;;;;;;;;;;5117207;28;20553;-73
2022/04/13 00:31:58;;;;;;;3.60;1.80;;;;;;;;;;5117901;28;20210;-72
2022/04/13 00:34:26;;;;;;;4.23;1.90;;;;;;;;;;5117453;28;20535;-73
2022/04/13 00:36:57;;;;;;;4.90;1.73;;;;;;;;;;5117953;28;20650;-71
2022/04/13 00:39:25;;;;;;;4.17;2.10;;;;;;;;;;5117798;28;20311;-71
2022/04/13 00:41:56;;;;;;;3.73;1.73;;;;;;;;;;5109618;28;20687;-71
2022/04/13 00:44:26;;;;;;;6.53;2.17;;;;;;;;;;5117599;28;20200;-73
2022/04/13 00:46:54;;;;;;;5.40;2.13;;;;;;;;;;5117737;28;20217;-73
2022/04/13 00:49:22;;;;;;;3.67;1.67;;;;;;;;;;5118155;28;20652;-72
2022/04/13 00:51:50;;;;;;;6.77;2.30;;;;;;;;;;5117703;28;20201;-73
2022/04/13 00:54:20;;;;;;;4.07;1.50;;;;;;;;;;5117645;28;20698;-73
2022/04/13 00:56:49;;;;;;;6.00;1.90;;;;;;;;;;5117733;28;20216;-73
2022/04/13 00:59:17;;;;;;;8.70;2.00;;;;;;;;;;5117755;28;20542;-73
2022/04/13 01:01:47;;;;;;;4.57;1.60;;;;;;;;;;5117651;28;20239;-73
2022/04/13 01:04:16;;;;;;;5.57;1.87;;;;;;;;;;5117556;28;20201;-73
2022/04/13 01:06:44;;;;;;;5.07;1.90;;;;;;;;;;5117531;28;20212;-73
2022/04/13 01:09:12;;;;;;;3.07;1.40;;;;;;;;;;5117433;28;20556;-73
2022/04/13 01:11:42;;;;;;;4.07;1.53;;;;;;;;;;5117797;28;20207;-73
2022/04/13 01:14:10;;;;;;;7.07;1.73;;;;;;;;;;5109497;28;20197;-73
2022/04/13 01:16:39;;;;;;;3.60;1.67;;;;;;;;;;5117717;28;20687;-73
2022/04/13 01:19:13;;;;;;;5.70;1.60;;;;;;;;;;5115982;28;20205;-73
2022/04/13 01:21:45;;;;;;;3.80;1.40;;;;;;;;;;5121842;28;20197;-73
2022/04/13 01:24:14;;;;;;;8.47;2.40;;;;;;;;;;5121522;28;20196;-73
2022/04/13 01:26:42;;;;;;;11.37;2.77;;;;;;;;;;5121616;28;20300;-73
2022/04/13 01:29:10;;;;;;;3.90;1.60;;;;;;;;;;5120864;28;20200;-73
2022/04/13 01:31:38;;;;;;;8.20;1.67;;;;;;;;;;5121508;28;20305;-73
2022/04/13 01:34:07;;;;;;;6.67;1.90;;;;;;;;;;5121227;28;20209;-73
2022/04/13 01:36:35;;;;;;;7.57;1.80;;;;;;;;;;5121612;28;20216;-73
2022/04/13 01:39:03;;;;;;;2.60;1.67;;;;;;;;;;5121134;27;20215;-74
2022/04/13 01:41:33;;;;;;;6.67;1.60;;;;;;;;;;5121083;28;20227;-73
2022/04/13 01:44:01;;;;;;;8.87;1.90;;;;;;;;;;5121218;27;20201;-73
2022/04/13 01:46:28;;;;;;;6.00;1.90;;;;;;;;;;5121381;27;20252;-73
2022/04/13 01:48:56;;;;;;;8.67;1.47;;;;;;;;;;5121401;28;20205;-72
2022/04/13 01:51:24;;;;;;;7.87;2.57;;;;;;;;;;5116154;28;20197;-73
2022/04/13 01:53:52;;;;;;;5.47;1.80;;;;;;;;;;5121342;28;20203;-73
2022/04/13 01:56:20;;;;;;;4.17;1.87;;;;;;;;;;5120730;28;20232;-73
2022/04/13 01:58:49;;;;;;;3.33;2.07;;;;;;;;;;5120921;28;20197;-73
2022/04/13 02:01:19;;;;;;;6.73;1.90;;;;;;;;;;5120653;28;20227;-74
2022/04/13 02:03:48;;;;;;;4.80;1.70;;;;;;;;;;5100748;28;20229;-73
2022/04/13 02:06:16;;;;;;;6.73;1.87;;;;;;;;;;5100254;28;20728;-74
2022/04/13 02:08:44;;;;;;;3.37;1.70;;;;;;;;;;5100531;28;20194;-73
2022/04/13 02:11:12;;;;;;;3.60;1.50;;;;;;;;;;5100604;28;20281;-73
2022/04/13 02:13:40;;;;;;;6.60;1.90;;;;;;;;;;5100394;28;20201;-73
2022/04/13 02:16:10;;;;;;;5.37;1.33;;;;;;;;;;5100249;28;20217;-73
2022/04/13 02:18:38;;;;;;;5.60;1.80;;;;;;;;;;5099360;28;20728;-73
2022/04/13 02:21:06;;;;;;;8.60;2.10;;;;;;;;;;5097832;28;20214;-72
2022/04/13 02:23:34;;;;;;;2.10;1.80;;;;;;;;;;5089573;28;20205;-73
2022/04/13 02:26:02;;;;;;;6.47;1.93;;;;;;;;;;5086128;28;20218;-73
2022/04/13 02:28:30;;;;;;;4.87;1.93;;;;;;;;;;5090516;28;20206;-71
2022/04/13 02:30:58;;;;;;;2.40;1.60;;;;;;;;;;5088908;28;20208;-73
2022/04/13 02:33:31;;;;;;;4.37;2.10;;;;;;;;;;5092135;28;20572;-71
2022/04/13 02:35:59;;;;;;;7.50;2.13;;;;;;;;;;5091791;28;20754;-72
2022/04/13 02:38:27;;;;;;;7.57;2.10;;;;;;;;;;5091589;28;20212;-73
2022/04/13 02:40:55;;;;;;;10.13;1.90;;;;;;;;;;5088495;28;20232;-72
2022/04/13 02:43:25;;;;;;;4.83;2.03;;;;;;;;;;5086461;28;20206;-72
2022/04/13 02:45:53;;;;;;;7.10;2.07;;;;;;;;;;5087400;28;20277;-72
2022/04/13 02:48:24;;;;;;;4.40;1.97;;;;;;;;;;5087566;28;20247;-72
2022/04/13 02:50:56;;;;;;;5.47;1.67;;;;;;;;;;5087795;28;20230;-73
2022/04/13 02:53:26;;;;;;;8.80;2.07;;;;;;;;;;5086683;28;20563;-71
2022/04/13 02:55:54;;;;;;;6.20;1.57;;;;;;;;;;5090915;28;20232;-72
2022/04/13 02:58:23;;;;;;;4.87;2.13;;;;;;;;;;5090520;28;20263;-73
2022/04/13 03:00:51;;;;;;;9.17;2.47;;;;;;;;;;5091509;28;20217;-73
2022/04/13 03:03:19;;;;;;;4.53;1.77;;;;;;;;;;5116130;28;20237;-73
2022/04/13 03:05:47;;;;;;;8.20;2.27;;;;;;;;;;5119046;28;20590;-73
2022/04/13 03:08:16;;;;;;;5.80;1.90;;;;;;;;;;5119598;28;20200;-72
2022/04/13 03:10:44;;;;;;;6.57;2.00;;;;;;;;;;5117595;28;20802;-72
2022/04/13 03:13:12;;;;;;;8.47;2.50;;;;;;;;;;5117596;28;20201;-73
2022/04/13 03:15:41;;;;;;;8.27;2.40;;;;;;;;;;5117589;28;20217;-73
2022/04/13 03:18:09;;;;;;;2.80;1.87;;;;;;;;;;5115256;28;20203;-73
2022/04/13 03:20:37;;;;;;;9.13;2.13;;;;;;;;;;5117610;28;20204;-72
2022/04/13 03:23:05;;;;;;;11.73;2.60;;;;;;;;;;5117574;28;20197;-72
2022/04/13 03:25:34;;;;;;;8.50;2.07;;;;;;;;;;5118286;28;20221;-72
2022/04/13 03:28:02;;;;;;;9.53;2.43;;;;;;;;;;5119534;28;20205;-72
2022/04/13 03:30:30;;;;;;;9.97;1.53;;;;;;;;;;5119124;28;20561;-72
2022/04/13 03:32:58;;;;;;;7.23;1.93;;;;;;;;;;5117218;28;20637;-72
2022/04/13 03:35:26;;;;;;;9.60;2.63;;;;;;;;;;5109379;28;20714;-72
2022/04/13 03:37:54;;;;;;;8.47;2.70;;;;;;;;;;5118963;28;20214;-72
2022/04/13 03:40:23;;;;;;;6.43;2.13;;;;;;;;;;5119077;28;20208;-69
2022/04/13 03:42:52;;;;;;;7.53;2.27;;;;;;;;;;5118893;28;20224;-69
2022/04/13 03:45:20;;;;;;;8.57;2.17;;;;;;;;;;5118489;28;20220;-69
2022/04/13 03:47:48;;;;;;;5.70;1.93;;;;;;;;;;5118570;28;20204;-69
2022/04/13 03:50:17;;;;;;;6.97;2.10;;;;;;;;;;5119156;28;20192;-69
2022/04/13 03:52:46;;;;;;;8.87;2.47;;;;;;;;;;5118433;28;20225;-69
2022/04/13 03:55:14;;;;;;;5.17;1.70;;;;;;;;;;5118800;28;20205;-69
2022/04/13 03:57:42;;;;;;;7.57;2.17;;;;;;;;;;5118860;28;20197;-69
2022/04/13 04:00:12;;;;;;;3.07;2.03;;;;;;;;;;5118672;28;20283;-69
2022/04/13 04:02:40;;;;;;;8.00;1.83;;;;;;;;;;5118392;28;20239;-70
2022/04/13 04:05:09;;;;;;;8.27;2.23;;;;;;;;;;5118638;27;20208;-70
2022/04/13 04:07:37;;;;;;;8.37;2.57;;;;;;;;;;5118581;28;20196;-70
2022/04/13 04:10:06;;;;;;;5.10;2.03;;;;;;;;;;5118776;28;20235;-76
2022/04/13 04:16:04;;;;;;;5.73;2.27;;;;;;;;;;5104757;28;20227;-76
2022/04/13 04:18:32;;;;;;;11.20;2.27;;;;;;;;;;5115090;28;20725;-74
2022/04/13 04:21:00;;;;;;;8.30;2.30;;;;;;;;;;5117659;28;20564;-75
2022/04/13 04:23:28;;;;;;;9.23;2.47;;;;;;;;;;5118310;28;20218;-75
2022/04/13 04:25:56;;;;;;;9.53;2.83;;;;;;;;;;5117879;28;20227;-75
2022/04/13 04:28:23;;;;;;;9.30;2.73;;;;;;;;;;5118214;28;20214;-75
2022/04/13 04:30:51;;;;;;;13.27;2.93;;;;;;;;;;5117997;28;20196;-75
2022/04/13 04:33:23;;;;;;;6.97;2.13;;;;;;;;;;5118172;28;20225;-75
2022/04/13 04:35:51;;;;;;;8.40;2.30;;;;;;;;;;5117863;28;20223;-74
2022/04/13 04:38:20;;;;;;;10.03;2.37;;;;;;;;;;5118003;28;20648;-75
2022/04/13 04:40:48;;;;;;;8.27;2.57;;;;;;;;;;5117798;28;20204;-75
2022/04/13 04:43:16;;;;;;;8.37;2.30;;;;;;;;;;5117793;28;20308;-75
2022/04/13 04:45:43;;;;;;;8.77;2.37;;;;;;;;;;5117918;28;20222;-75
2022/04/13 04:48:11;;;;;;;11.70;2.90;;;;;;;;;;5117523;28;20675;-80
2022/04/13 04:50:41;;;;;;;7.40;2.30;;;;;;;;;;5118129;28;20196;-74
2022/04/13 04:53:09;;;;;;;11.33;2.57;;;;;;;;;;5117070;28;20189;-75
2022/04/13 04:55:37;;;;;;;9.57;2.47;;;;;;;;;;5118090;28;20221;-75
2022/04/13 04:58:05;;;;;;;12.77;2.80;;;;;;;;;;5117068;28;20215;-74
2022/04/13 05:00:36;;;;;;;10.47;3.63;;;;;;;;;;5118197;28;20208;-75
2022/04/13 05:03:04;;;;;;;13.30;2.87;;;;;;;;;;5117221;28;20745;-74
2022/04/13 05:05:33;;;;;;;10.60;2.60;;;;;;;;;;5117784;28;20220;-75
2022/04/13 05:08:02;;;;;;;7.23;2.77;;;;;;;;;;5117258;27;20207;-73
2022/04/13 05:10:30;;;;;;;6.40;2.60;;;;;;;;;;5117163;28;20648;-73
2022/04/13 05:12:58;;;;;;;9.13;3.37;;;;;;;;;;5116336;28;20197;-73
2022/04/13 05:15:27;;;;;;;6.90;2.50;;;;;;;;;;5116971;28;20221;-72
2022/04/13 05:17:55;;;;;;;7.60;2.43;;;;;;;;;;5117115;28;20209;-72
2022/04/13 05:20:23;;;;;;;7.60;2.43;;;;;;;;;;5114135;28;20231;-73
2022/04/13 05:22:51;;;;;;;10.40;2.97;;;;;;;;;;5116293;28;20759;-73
2022/04/13 05:25:21;;;;;;;9.90;2.67;;;;;;;;;;5116645;28;20274;-74
2022/04/13 05:27:49;;;;;;;15.43;3.00;;;;;;;;;;5114750;28;20243;-73
2022/04/13 05:30:17;;;;;;;11.17;2.53;;;;;;;;;;5116447;28;20193;-74
2022/04/13 05:32:48;;;;;;;9.00;3.00;;;;;;;;;;5116564;28;20197;-74
2022/04/13 05:35:17;;;;;;;12.37;2.83;;;;;;;;;;5115239;28;20239;-74
2022/04/13 05:37:45;;;;;;;14.37;2.73;;;;;;;;;;5116744;28;20562;-75
2022/04/13 05:40:13;;;;;;;11.17;2.70;;;;;;;;;;5114498;28;20750;-73
2022/04/13 05:42:43;;;;;;;11.47;3.43;;;;;;;;;;5117547;28;20217;-73
2022/04/13 05:45:13;;;;;;;9.33;2.43;;;;;;;;;;5116177;28;20246;-73
2022/04/13 05:47:42;;;;;;;8.63;2.23;;;;;;;;;;5116634;28;20198;-73
2022/04/13 05:50:11;;;;;;;10.80;2.97;;;;;;;;;;5116938;28;20219;-73
2022/04/13 05:52:39;;;;;;;10.60;2.87;;;;;;;;;;5116989;28;20193;-71
2022/04/13 05:55:08;;;;;;;8.83;2.93;;;;;;;;;;5117234;28;20254;-72
2022/04/13 05:57:36;;;;;;;10.07;3.03;;;;;;;;;;5116912;28;20197;-73
2022/04/13 06:00:07;;;;;;;12.27;2.87;;;;;;;;;;5116852;28;20685;-73
2022/04/13 06:02:36;;;;;;;11.27;2.80;;;;;;;;;;5116706;28;20275;-73
2022/04/13 06:05:04;;;;;;;12.00;2.73;;;;;;;;;;5121080;28;20254;-73
2022/04/13 06:07:33;;;;;;;9.37;2.57;;;;;;;;;;5120525;28;20227;-73
2022/04/13 06:10:01;;;;;;;12.87;3.30;;;;;;;;;;5120568;28;20575;-75
2022/04/13 06:12:30;;;;;;;9.00;2.50;;;;;;;;;;5120725;28;20192;-75
2022/04/13 06:15:01;;;;;;;7.70;2.53;;;;;;;;;;5120763;28;20261;-75
2022/04/13 06:17:31;;;;;;;13.07;3.10;;;;;;;;;;5117235;28;20293;-75
2022/04/13 06:19:59;;;;;;;7.53;3.13;;;;;;;;;;5120464;28;20208;-75
2022/04/13 06:22:27;;;;;;;8.53;2.23;;;;;;;;;;5120636;28;20217;-76
2022/04/13 06:24:56;;;;;;;7.60;3.20;;;;;;;;;;5114840;28;20211;-79
2022/04/13 06:27:25;;;;;;;14.10;2.90;;;;;;;;;;5117737;27;20284;-76
2022/04/13 06:29:54;;;;;;;7.00;2.50;;;;;;;;;;5120378;27;20201;-76
2022/04/13 06:32:22;;;;;;;5.70;2.40;;;;;;;;;;5124004;27;20544;-78
2022/04/13 06:34:51;;;;;;;10.60;2.80;;;;;;;;;;5121245;27;20205;-75
2022/04/13 06:37:19;;;;;;;13.23;2.83;;;;;;;;;;5118899;27;20696;-78
2022/04/13 06:39:48;;;;;;;9.63;2.63;;;;;;;;;;5119582;27;20219;-79
2022/04/13 06:42:16;;;;;;;6.67;2.47;;;;;;;;;;5123747;27;20193;-78
2022/04/13 06:44:44;;;;;;;11.97;3.47;;;;;;;;;;5122380;27;20201;-79
2022/04/13 06:47:12;;;;;;;14.10;3.07;;;;;;;;;;5119400;27;20221;-78
2022/04/13 06:49:40;;;;;;;7.73;2.80;;;;;;;;;;5121895;27;20236;-73
2022/04/13 06:52:10;;;;;;;7.20;2.50;;;;;;;;;;5119692;27;20198;-74
2022/04/13 06:54:38;;;;;;;10.57;3.00;;;;;;;;;;5113622;27;20212;-74
2022/04/13 06:57:06;;;;;;;10.97;2.67;;;;;;;;;;5113152;27;20217;-74
2022/04/13 06:59:34;;;;;;;8.93;2.60;;;;;;;;;;5115308;27;20245;-74
2022/04/13 07:02:02;;;;;;;9.17;2.60;;;;;;;;;;5114511;27;20286;-80
2022/04/13 07:04:31;;;;;;;6.77;3.20;;;;;;;;;;5119487;27;20924;-76
2022/04/13 07:06:59;;;;;;;13.50;3.10;;;;;;;;;;5117720;27;20221;-76
2022/04/13 07:09:28;;;;;;;10.83;3.07;;;;;;;;;;5119216;28;20214;-76
2022/04/13 07:11:56;;;;;;;8.50;3.47;;;;;;;;;;5119381;27;20540;-75
2022/04/13 07:14:24;;;;;;;10.43;3.73;;;;;;;;;;5120200;27;20604;-75
2022/04/13 07:16:52;;;;;;;15.53;4.40;;;;;;;;;;5116472;27;20217;-75
2022/04/13 07:19:20;;;;;;;10.53;2.83;;;;;;;;;;5119821;27;20211;-76
2022/04/13 07:21:48;;;;;;;8.17;2.83;;;;;;;;;;5118284;27;20200;-75
2022/04/13 07:24:29;;;;;;;15.53;3.20;;;;;;;;;;5116511;28;20212;-76
2022/04/13 07:26:57;;;;;;;7.27;2.57;;;;;;;;;;5121188;27;20225;-76
2022/04/13 07:29:25;;;;;;;16.37;3.70;;;;;;;;;;5119439;27;20209;-76
2022/04/13 07:31:53;;;;;;;14.07;3.50;;;;;;;;;;5116301;27;20224;-76
2022/04/13 07:34:21;;;;;;;9.93;2.67;;;;;;;;;;5119617;27;20197;-75
2022/04/13 07:36:49;;;;;;;6.07;2.97;;;;;;;;;;5117304;28;20235;-73
2022/04/13 07:39:17;;;;;;;8.50;2.93;;;;;;;;;;5118342;27;20208;-74
2022/04/13 07:41:46;;;;;;;7.20;2.40;;;;;;;;;;5118855;27;20201;-74
2022/04/13 07:44:14;;;;;;;9.20;2.70;;;;;;;;;;5122192;27;20223;-73
2022/04/13 07:46:42;;;;;;;11.87;3.67;;;;;;;;;;5118895;27;20229;-75
2022/04/13 07:49:10;;;;;;;8.77;2.90;;;;;;;;;;5120757;27;20204;-75
2022/04/13 07:51:40;;;;;;;16.00;3.60;;;;;;;;;;5122366;27;20201;-73
2022/04/13 07:54:08;;;;;;;8.63;2.83;;;;;;;;;;5118545;27;20623;-72
2022/04/13 07:56:58;;;;;;;8.10;3.47;;;;;;;;;;5116830;28;20610;-74
2022/04/13 07:59:27;;;;;;;12.13;3.47;;;;;;;;;;5114529;28;20630;-76
2022/04/13 08:01:55;;;;;;;9.43;3.20;;;;;;;;;;5117467;28;20228;-74
2022/04/13 08:04:23;;;;;;;8.93;2.77;;;;;;;;;;5118628;27;20227;-77
2022/04/13 08:06:55;;;;;;;8.93;2.60;;;;;;;;;;5118377;27;20646;-75
2022/04/13 08:09:23;;;;;;;8.07;2.97;;;;;;;;;;5123114;27;20367;-75
2022/04/13 08:11:52;;;;;;;7.00;2.53;;;;;;;;;;5116183;27;20714;-76
2022/04/13 08:14:22;;;;;;;7.50;2.63;;;;;;;;;;5124089;27;20660;-74
2022/04/13 08:16:50;;;;;;;5.60;2.43;;;;;;;;;;5117599;27;20763;-74
2022/04/13 08:19:19;;;;;;;7.90;3.80;;;;;;;;;;5120680;27;20262;-75
2022/04/13 08:21:47;;;;;;;7.77;2.07;;;;;;;;;;5118165;27;20197;-74
2022/04/13 08:24:17;;;;;;;14.23;2.50;;;;;;;;;;5117507;28;20224;-75
2022/04/13 08:26:45;;;;;;;7.47;2.13;;;;;;;;;;5117196;27;20232;-75
2022/04/13 08:29:13;;;;;;;9.87;2.40;;;;;;;;;;5122040;27;20560;-74
2022/04/13 08:31:43;;;;;;;10.30;2.77;;;;;;;;;;5112408;27;20266;-76
2022/04/13 08:34:11;;;;;;;9.47;2.63;;;;;;;;;;5122658;27;20763;-75
2022/04/13 08:36:39;;;;;;;8.40;2.87;;;;;;;;;;5118679;27;20224;-74
2022/04/13 08:39:13;;;;;;;9.30;2.40;;;;;;;;;;5119349;28;20201;-75
2022/04/13 08:41:44;;;;;;;9.67;2.37;;;;;;;;;;5124194;27;20208;-75
2022/04/13 08:44:15;;;;;;;8.47;2.57;;;;;;;;;;5125045;27;20220;-75
2022/04/13 08:46:45;;;;;;;10.10;3.00;;;;;;;;;;5124592;27;20220;-75
2022/04/13 08:49:14;;;;;;;5.50;2.43;;;;;;;;;;5117669;28;20228;-75
2022/04/13 08:52:00;;;;;;;7.07;2.93;;;;;;;;;;5123364;27;20228;-75
2022/04/13 08:54:31;;;;;;;5.20;2.50;;;;;;;;;;5114187;27;20276;-72
2022/04/13 08:56:59;;;;;;;13.83;2.60;;;;;;;;;;5119802;27;20244;-75
2022/04/13 08:59:52;;;;;;;10.80;3.17;;;;;;;;;;5117538;27;20197;-75
2022/04/13 09:02:30;;;;;;;9.40;2.30;;;;;;;;;;5114884;27;20224;-73
2022/04/13 09:05:00;;;;;;;7.70;2.77;;;;;;;;;;5119788;28;20232;-74
2022/04/13 09:07:31;;;;;;;8.17;2.43;;;;;;;;;;5121726;27;20224;-76
2022/04/13 09:10:01;;;;;;;5.80;2.60;;;;;;;;;;5113692;28;20204;-74
2022/04/13 09:12:30;;;;;;;11.17;2.40;;;;;;;;;;5119921;28;20206;-74
2022/04/13 09:14:59;;;;;;;7.30;2.70;;;;;;;;;;5119993;28;20623;-75
2022/04/13 09:17:29;;;;;;;11.07;2.57;;;;;;;;;;5116745;28;20282;-74
2022/04/13 09:19:57;;;;;;;9.87;2.60;;;;;;;;;;5122057;28;20200;-75
2022/04/13 09:22:25;;;;;;;13.37;3.23;;;;;;;;;;5121373;28;20208;-75
2022/04/13 09:24:53;;;;;;;9.23;3.00;;;;;;;;;;5121551;28;20693;-74
2022/04/13 09:27:23;;;;;;;7.97;2.73;;;;;;;;;;5116587;28;20906;-76
2022/04/13 09:29:51;;;;;;;6.00;2.53;;;;;;;;;;5120815;28;20279;-76
2022/04/13 09:32:19;;;;;;;12.93;2.63;;;;;;;;;;5120567;28;20285;-76
2022/04/13 09:34:49;;;;;;;9.27;2.60;;;;;;;;;;5122495;28;20276;-77
2022/04/13 09:37:17;;;;;;;8.07;2.83;;;;;;;;;;5118039;28;20723;-75
2022/04/13 09:39:46;;;;;;;8.13;2.67;;;;;;;;;;5130729;27;20200;-76
2022/04/13 09:42:14;;;;;;;6.40;2.60;;;;;;;;;;5120531;27;20207;-78
2022/04/13 09:44:42;;;;;;;6.87;2.50;;;;;;;;;;5127883;27;20223;-77
2022/04/13 09:47:10;;;;;;;8.83;2.60;;;;;;;;;;5121879;27;20225;-78
2022/04/13 09:49:42;;;;;;;6.63;2.67;;;;;;;;;;5120526;28;20205;-77
2022/04/13 09:52:11;;;;;;;9.33;2.70;;;;;;;;;;5120957;27;20201;-77
2022/04/13 09:54:43;;;;;;;5.43;2.50;;;;;;;;;;5120217;28;20277;-77
2022/04/13 09:57:20;;;;;;;8.80;2.30;;;;;;;;;;5120242;28;20220;-77
2022/04/13 09:59:54;;;;;;;7.47;2.50;;;;;;;;;;5114804;27;20196;-76
2022/04/13 10:02:37;;;;;;;9.20;2.60;;;;;;;;;;5119275;27;20240;-76
2022/04/13 10:05:06;;;;;;;7.50;2.70;;;;;;;;;;5119656;27;20217;-77
2022/04/13 10:07:35;;;;;;;8.83;2.83;;;;;;;;;;5122959;27;20201;-77
2022/04/13 10:10:03;;;;;;;7.43;2.27;;;;;;;;;;5129860;27;20280;-77
2022/04/13 10:12:46;;;;;;;7.83;2.37;;;;;;;;;;5119543;28;20562;-77
2022/04/13 10:15:14;;;;;;;5.47;2.83;;;;;;;;;;5120602;27;20201;-76
2022/04/13 10:17:42;;;;;;;12.60;2.80;;;;;;;;;;5117950;27;20219;-75
2022/04/13 10:20:11;;;;;;;6.23;2.77;;;;;;;;;;5120808;27;20207;-77
2022/04/13 10:22:54;;;;;;;9.27;3.10;;;;;;;;;;5121052;27;20586;-77
2022/04/13 10:25:25;;;;;;;5.93;2.13;;;;;;;;;;5119505;27;20637;-76
2022/04/13 10:27:54;;;;;;;9.50;3.23;;;;;;;;;;5119653;27;20201;-75
2022/04/13 10:30:27;;;;;;;6.00;1.90;;;;;;;;;;5121220;27;20197;-73
2022/04/13 10:32:58;;;;;;;5.17;2.60;;;;;;;;;;5127738;27;20197;-75
2022/04/13 10:35:27;;;;;;;3.60;2.17;;;;;;;;;;5121738;27;20217;-74
2022/04/13 10:37:55;;;;;;;13.80;4.47;;;;;;;;;;5123460;27;20320;-74
2022/04/13 10:40:27;;;;;;;7.87;2.63;;;;;;;;;;5121110;27;20265;-74
2022/04/13 10:42:58;;;;;;;9.07;2.83;;;;;;;;;;5118711;27;20558;-74
2022/04/13 10:45:27;;;;;;;6.97;2.23;;;;;;;;;;5119025;27;20225;-74
2022/04/13 10:47:58;;;;;;;8.27;2.57;;;;;;;;;;5118292;27;20216;-75
2022/04/13 10:50:41;;;;;;;9.30;2.73;;;;;;;;;;5117870;28;20215;-75
2022/04/13 10:53:19;;;;;;;7.87;2.07;;;;;;;;;;5118700;27;20204;-74
2022/04/13 10:55:52;;;;;;;10.20;2.60;;;;;;;;;;5120917;27;20244;-74
2022/04/13 10:58:24;;;;;;;5.67;2.33;;;;;;;;;;5116355;27;20204;-75
2022/04/13 11:00:55;;;;;;;7.03;2.27;;;;;;;;;;5121130;27;20200;-74
2022/04/13 11:03:25;;;;;;;5.53;2.50;;;;;;;;;;5119587;27;20231;-74
2022/04/13 11:05:53;;;;;;;3.47;2.10;;;;;;;;;;5122405;27;20224;-75
2022/04/13 11:08:25;;;;;;;5.20;2.07;;;;;;;;;;5120699;27;20208;-75
2022/04/13 11:10:54;;;;;;;7.57;2.80;;;;;;;;;;5119505;27;20200;-75
2022/04/13 11:13:23;;;;;;;8.57;1.90;;;;;;;;;;5120787;27;20197;-75
2022/04/13 11:15:56;;;;;;;6.73;2.67;;;;;;;;;;5117500;28;20221;-74
2022/04/13 11:18:24;;;;;;;6.57;2.00;;;;;;;;;;5119072;27;20209;-74
2022/04/13 11:21:05;;;;;;;8.03;2.70;;;;;;;;;;5118461;28;20219;-75
2022/04/13 11:23:46;;;;;;;9.77;2.57;;;;;;;;;;5119083;27;20197;-75
2022/04/13 11:26:16;;;;;;;6.93;2.40;;;;;;;;;;5118218;27;20231;-75
2022/04/13 11:28:44;;;;;;;6.80;2.17;;;;;;;;;;5122499;27;20201;-74
2022/04/13 11:31:13;;;;;;;13.00;2.40;;;;;;;;;;5116367;27;20652;-74
2022/04/13 11:33:50;;;;;;;8.07;2.47;;;;;;;;;;5121132;27;20192;-74
2022/04/13 11:36:19;;;;;;;6.40;3.13;;;;;;;;;;5116323;27;20216;-74
2022/04/13 11:39:07;;;;;;;6.90;1.90;;;;;;;;;;5117493;27;20550;-74
2022/04/13 11:41:36;;;;;;;6.50;2.07;;;;;;;;;;5122176;27;20207;-74
2022/04/13 11:44:18;;;;;;;9.97;1.90;;;;;;;;;;5122528;27;20237;-74
2022/04/13 11:46:46;;;;;;;10.57;2.53;;;;;;;;;;5106796;28;20218;-74
2022/04/13 11:49:15;;;;;;;9.17;2.83;;;;;;;;;;5118532;27;20250;-75
2022/04/13 11:51:43;;;;;;;3.33;2.00;;;;;;;;;;5126372;27;20203;-74
2022/04/13 11:54:12;;;;;;;3.63;2.47;;;;;;;;;;5117942;28;20211;-75
2022/04/13 11:56:49;;;;;;;8.97;2.67;;;;;;;;;;5126878;27;20692;-75
2022/04/13 11:59:18;;;;;;;8.47;2.97;;;;;;;;;;5119993;27;20204;-74
2022/04/13 12:01:53;;;;;;;6.27;3.10;;;;;;;;;;5124826;27;20227;-74
2022/04/13 12:04:22;;;;;;;6.73;2.63;;;;;;;;;;5118030;28;20201;-74
2022/04/13 12:06:51;;;;;;;10.30;2.73;;;;;;;;;;5121883;27;20220;-73
2022/04/13 12:09:19;;;;;;;7.80;2.23;;;;;;;;;;5119867;27;20201;-73
2022/04/13 12:11:49;;;;;;;6.00;2.50;;;;;;;;;;5120057;27;20256;-73
2022/04/13 12:14:26;;;;;;;6.03;2.43;;;;;;;;;;5116215;28;20215;-73
2022/04/13 12:16:56;;;;;;;6.07;2.60;;;;;;;;;;5116169;27;20218;-73
2022/04/13 12:19:24;;;;;;;6.33;2.47;;;;;;;;;;5116692;27;20207;-73
2022/04/13 12:21:52;;;;;;;10.57;3.47;;;;;;;;;;5116382;27;20208;-73
2022/04/13 12:24:20;;;;;;;9.87;3.00;;;;;;;;;;5116733;28;20213;-73
2022/04/13 12:26:49;;;;;;;5.97;2.10;;;;;;;;;;5117947;27;20221;-74
2022/04/13 12:29:18;;;;;;;5.73;2.60;;;;;;;;;;5117494;27;20224;-73
2022/04/13 12:31:47;;;;;;;9.07;2.63;;;;;;;;;;5112371;27;20276;-73
2022/04/13 12:34:15;;;;;;;6.00;2.50;;;;;;;;;;5109835;28;20200;-73
2022/04/13 12:36:43;;;;;;;5.17;2.33;;;;;;;;;;5123357;27;20217;-73
2022/04/13 12:39:12;;;;;;;13.07;2.93;;;;;;;;;;5118362;27;20215;-73
2022/04/13 12:41:40;;;;;;;9.27;3.20;;;;;;;;;;5112107;27;20208;-74
2022/04/13 12:44:10;;;;;;;10.23;2.20;;;;;;;;;;5112171;27;20201;-73
2022/04/13 12:46:38;;;;;;;9.50;2.60;;;;;;;;;;5106838;27;20217;-74
2022/04/13 12:49:07;;;;;;;7.37;2.77;;;;;;;;;;5110584;27;20231;-74
2022/04/13 12:51:35;;;;;;;5.80;2.10;;;;;;;;;;5112807;27;20207;-74
2022/04/13 12:54:04;;;;;;;6.93;2.30;;;;;;;;;;5118390;27;20208;-74
2022/04/13 12:56:33;;;;;;;9.47;2.90;;;;;;;;;;5119160;27;20208;-75
2022/04/13 12:59:01;;;;;;;11.77;2.57;;;;;;;;;;5124362;27;20213;-74
2022/04/13 13:01:32;;;;;;;9.07;2.57;;;;;;;;;;5117274;27;20193;-74
2022/04/13 13:04:11;;;;;;;6.77;2.30;;;;;;;;;;5122842;27;20235;-73
2022/04/13 13:06:39;;;;;;;6.50;3.13;;;;;;;;;;5118133;28;20227;-74
2022/04/13 13:09:08;;;;;;;9.33;3.03;;;;;;;;;;5111316;28;20572;-74
2022/04/13 13:11:37;;;;;;;5.20;2.53;;;;;;;;;;5116934;28;20211;-73
2022/04/13 13:14:10;;;;;;;7.53;2.50;;;;;;;;;;5110659;28;20656;-73
2022/04/13 13:16:45;;;;;;;5.40;1.80;;;;;;;;;;5113588;28;20215;-74
2022/04/13 13:19:14;;;;;;;4.87;2.40;;;;;;;;;;5116592;28;20232;-74
2022/04/13 13:22:01;;;;;;;6.67;1.97;;;;;;;;;;5116827;28;20309;-74
2022/04/13 13:24:30;;;;;;;4.63;1.67;;;;;;;;;;5120553;28;20196;-74
2022/04/13 13:27:02;;;;;;;5.60;1.73;;;;;;;;;;5117324;28;20277;-74
2022/04/13 13:29:30;;;;;;;5.83;1.77;;;;;;;;;;5120705;28;20203;-74
2022/04/13 13:32:09;;;;;;;4.43;1.90;;;;;;;;;;5117532;28;20683;-74
2022/04/13 13:34:38;;;;;;;5.73;2.00;;;;;;;;;;5116460;28;20275;-74
2022/04/13 13:37:07;;;;;;;7.97;2.50;;;;;;;;;;5115316;28;20223;-74
2022/04/13 13:39:35;;;;;;;9.50;2.00;;;;;;;;;;5123128;28;20581;-74
2022/04/13 13:42:04;;;;;;;4.27;2.13;;;;;;;;;;5116712;28;20680;-74
2022/04/13 13:44:32;;;;;;;4.80;1.97;;;;;;;;;;5116337;28;20208;-74
2022/04/13 13:47:03;;;;;;;15.30;3.00;;;;;;;;;;5119835;28;20225;-74
2022/04/13 13:49:31;;;;;;;8.20;2.07;;;;;;;;;;5120986;28;20206;-75
2022/04/13 13:51:59;;;;;;;6.07;2.00;;;;;;;;;;5118592;28;20205;-74
2022/04/13 13:54:27;;;;;;;4.13;1.67;;;;;;;;;;5113493;28;20223;-74
2022/04/13 13:56:55;;;;;;;4.30;1.63;;;;;;;;;;5119516;28;20243;-74
2022/04/13 13:59:23;;;;;;;5.70;1.80;;;;;;;;;;5117211;28;20664;-75
2022/04/13 14:01:51;;;;;;;4.70;1.17;;;;;;;;;;5114745;28;20783;-74
2022/04/13 14:04:25;;;;;;;2.87;1.20;;;;;;;;;;5119957;28;20200;-74
2022/04/13 14:06:53;;;;;;;2.27;1.60;;;;;;;;;;5120443;28;20225;-74
2022/04/13 14:09:21;;;;;;;4.67;1.80;;;;;;;;;;5116302;28;21550;-74
2022/04/13 14:11:49;;;;;;;4.60;1.40;;;;;;;;;;5117537;28;20197;-74
2022/04/13 14:14:17;;;;;;;3.63;1.30;;;;;;;;;;5117119;28;20325;-74
2022/04/13 14:16:45;;;;;;;4.17;1.53;;;;;;;;;;5120889;28;20220;-74
2022/04/13 14:19:13;;;;;;;2.83;1.67;;;;;;;;;;5108188;28;20204;-75
2022/04/13 14:21:45;;;;;;;5.87;1.63;;;;;;;;;;5114796;28;20199;-74
2022/04/13 14:24:14;;;;;;;4.27;1.40;;;;;;;;;;5117190;28;20197;-74
2022/04/13 14:26:41;;;;;;;1.77;1.30;;;;;;;;;;5120990;27;20226;-75
2022/04/13 14:29:09;;;;;;;3.53;1.60;;;;;;;;;;5122676;27;20201;-74
2022/04/13 14:31:37;;;;;;;2.57;1.40;;;;;;;;;;5124743;27;20201;-74
2022/04/13 14:34:06;;;;;;;4.97;1.07;;;;;;;;;;5120367;27;20201;-74
2022/04/13 14:36:33;;;;;;;5.27;1.50;;;;;;;;;;5124370;27;20220;-75
2022/04/13 14:39:03;;;;;;;8.40;2.23;;;;;;;;;;5120819;28;20208;-74
2022/04/13 14:41:31;;;;;;;3.93;1.97;;;;;;;;;;5123776;27;20205;-75
2022/04/13 14:43:59;;;;;;;3.00;1.40;;;;;;;;;;5120570;27;20211;-74
2022/04/13 14:46:27;;;;;;;2.70;1.30;;;;;;;;;;5127146;27;20304;-75
2022/04/13 14:48:55;;;;;;;2.23;1.33;;;;;;;;;;5120164;27;20216;-75
2022/04/13 14:51:23;;;;;;;3.40;1.90;;;;;;;;;;5122905;27;20592;-74
2022/04/13 14:53:53;;;;;;;6.03;2.03;;;;;;;;;;5115930;27;20197;-74
2022/04/13 14:56:23;;;;;;;3.50;1.47;;;;;;;;;;5121878;27;20223;-74
2022/04/13 14:58:51;;;;;;;3.10;1.43;;;;;;;;;;5122093;27;20207;-74